createdAt,value
2019-02-12T00:04:13.303Z,6
2019-02-12T00:09:10.000Z,6.6
2019-02-12T00:14:06.021Z,6.6
2019-02-12T00:19:03.036Z,6.6
2019-02-12T00:23:58.719Z,6.5
2019-02-12T00:28:54.711Z,6.6
2019-02-12T00:33:50.817Z,6.6
2019-02-12T00:38:46.388Z,6.5
2019-02-12T00:43:42.355Z,6.5
2019-02-12T00:48:38.424Z,6.5
2019-02-12T00:53:34.579Z,6.6
2019-02-12T00:58:30.665Z,6.5
2019-02-12T01:03:26.710Z,6.6
2019-02-12T01:08:22.652Z,6.6
2019-02-12T01:13:18.688Z,6.6
2019-02-12T01:18:14.561Z,6.6
2019-02-12T01:23:10.770Z,6.6
2019-02-12T01:28:06.788Z,6.6
2019-02-12T01:33:02.847Z,6.5
2019-02-12T01:37:58.453Z,6.6
2019-02-12T01:42:54.631Z,6.6
2019-02-12T01:47:50.238Z,6.6
2019-02-12T01:52:46.285Z,6.5
2019-02-12T01:57:42.135Z,6.6
2019-02-12T02:02:38.362Z,6.6
2019-02-12T02:07:34.503Z,6.6
2019-02-12T02:12:30.589Z,6.5
2019-02-12T02:17:26.788Z,5.3
2019-02-12T02:22:22.936Z,6.6
2019-02-12T02:27:18.989Z,6.6
2019-02-12T02:32:15.130Z,6.6
2019-02-12T02:37:11.210Z,6.6
2019-02-12T02:42:07.410Z,6.6
2019-02-12T02:47:03.131Z,6.6
2019-02-12T02:51:59.222Z,6.6
2019-02-12T02:56:54.700Z,6.6
2019-02-12T03:01:50.830Z,6.6
2019-02-12T03:06:47.122Z,6.6
2019-02-12T03:11:43.069Z,6.6
2019-02-12T03:16:38.991Z,6.6
2019-02-12T03:21:35.052Z,6.4
2019-02-12T03:26:31.179Z,6.6
2019-02-12T03:31:27.304Z,6.6
2019-02-12T03:36:22.900Z,6.6
2019-02-12T03:41:18.776Z,6.6
2019-02-12T03:46:14.575Z,6.6
2019-02-12T03:51:10.676Z,6.6
2019-02-12T03:56:06.789Z,6.5
2019-02-12T04:01:02.904Z,6.5
2019-02-12T04:05:58.642Z,6.5
2019-02-12T04:10:54.011Z,6.2
2019-02-12T04:15:49.659Z,6.4
2019-02-12T04:20:45.577Z,6.4
2019-02-12T04:25:41.426Z,6.4
2019-02-12T04:30:37.568Z,6.4
2019-02-12T04:35:33.748Z,6.4
2019-02-12T04:40:29.771Z,6.4
2019-02-12T04:45:25.581Z,6.4
2019-02-12T04:50:21.512Z,6.4
2019-02-12T04:55:17.089Z,6.3
2019-02-12T05:00:12.985Z,6.3
2019-02-12T05:05:08.834Z,6.3
2019-02-12T05:10:04.441Z,6.3
2019-02-12T05:15:00.405Z,6.3
2019-02-12T05:19:56.981Z,6.2
2019-02-12T05:24:52.893Z,6.2
2019-02-12T05:29:48.485Z,6.2
2019-02-12T05:34:44.303Z,6.1
2019-02-12T05:39:40.178Z,6.1
2019-02-12T05:44:36.086Z,6.1
2019-02-12T05:49:32.042Z,6.1
2019-02-12T05:54:27.987Z,6
2019-02-12T05:59:23.914Z,6.1
2019-02-12T06:04:19.928Z,5.8
2019-02-12T06:09:15.731Z,6
2019-02-12T06:14:11.578Z,6
2019-02-12T06:19:07.492Z,6
2019-02-12T06:24:04.685Z,6
2019-02-12T06:29:01.358Z,6.1
2019-02-12T06:33:57.190Z,6
2019-02-12T06:38:53.230Z,6.1
2019-02-12T06:43:48.916Z,6.1
2019-02-12T06:48:44.640Z,6
2019-02-12T06:53:40.413Z,6
2019-02-12T06:58:36.191Z,5.7
2019-02-12T07:03:32.035Z,5.9
2019-02-12T07:08:28.053Z,5.8
2019-02-12T07:13:23.871Z,5.8
2019-02-12T07:18:19.695Z,5.8
2019-02-12T07:23:21.109Z,5.9
2019-02-12T07:28:11.361Z,5.8
2019-02-12T07:33:13.112Z,5.8
2019-02-12T07:38:02.825Z,5.7
2019-02-12T07:42:58.714Z,5.7
2019-02-12T07:47:54.697Z,5.7
2019-02-12T07:52:50.785Z,5.7
2019-02-12T07:57:46.919Z,5.8
2019-02-12T08:02:42.687Z,5.6
2019-02-12T08:07:38.670Z,5.8
2019-02-12T08:12:34.645Z,5.7
2019-02-12T08:17:30.729Z,5.7
2019-02-12T08:22:26.774Z,5.6
2019-02-12T08:27:23.007Z,5.7
2019-02-12T08:32:19.031Z,5.7
2019-02-12T08:37:15.292Z,5.8
2019-02-12T08:42:11.045Z,2.3
2019-02-12T08:47:07.217Z,5.7
2019-02-12T08:52:03.150Z,5.7
2019-02-12T08:56:58.683Z,5.7
2019-02-12T09:01:53.979Z,5.8
2019-02-12T09:06:49.927Z,5.7
2019-02-12T09:11:45.550Z,5.7
2019-02-12T09:16:41.460Z,5.7
2019-02-12T09:21:37.379Z,5.7
2019-02-12T09:26:33.297Z,5.6
2019-02-12T09:31:28.659Z,5.6
2019-02-12T09:36:24.649Z,5.7
2019-02-12T09:41:20.647Z,5.7
2019-02-12T09:46:16.967Z,5.7
2019-02-12T09:51:12.802Z,5.7
2019-02-12T09:56:08.689Z,5.7
2019-02-12T10:01:04.651Z,5.8
2019-02-12T10:06:00.911Z,5.9
2019-02-12T10:10:56.935Z,5.9
2019-02-12T10:15:52.836Z,5.7
2019-02-12T10:20:49.595Z,5.9
2019-02-12T10:25:45.447Z,5.8
2019-02-12T10:30:41.753Z,5.8
2019-02-12T10:35:38.097Z,5.6
2019-02-12T10:40:33.408Z,5.8
2019-02-12T10:45:29.584Z,5.8
2019-02-12T10:50:25.546Z,5.7
2019-02-12T10:55:21.668Z,5.7
2019-02-12T11:00:17.583Z,5.7
2019-02-12T11:05:13.713Z,5.7
2019-02-12T11:10:09.511Z,5.7
2019-02-12T11:15:05.777Z,5.5
2019-02-12T11:20:02.337Z,5.8
2019-02-12T11:24:58.197Z,5.8
2019-02-12T11:29:54.181Z,5.8
2019-02-12T11:34:50.455Z,5.9
2019-02-12T11:39:46.458Z,5.8
2019-02-12T11:44:42.417Z,5.8
2019-02-12T11:49:38.619Z,5.9
2019-02-12T11:54:34.873Z,5.9
2019-02-12T11:59:31.124Z,5.8
2019-02-12T12:04:27.454Z,5.7
2019-02-12T12:09:23.445Z,5.7
2019-02-12T12:14:19.426Z,5.7
2019-02-12T12:19:15.400Z,5.8
2019-02-12T12:24:11.327Z,5.9
2019-02-12T12:29:07.685Z,6.1
2019-02-12T12:34:03.506Z,6.1
2019-02-12T12:38:59.457Z,6.1
2019-02-12T12:43:55.578Z,5.9
2019-02-12T12:48:51.600Z,5.8
2019-02-12T12:53:47.654Z,5.8
2019-02-12T12:58:43.606Z,5.7
2019-02-12T13:03:39.675Z,5.7
2019-02-12T13:08:35.592Z,5.5
2019-02-12T13:13:31.778Z,5.5
2019-02-12T13:18:27.928Z,5.5
2019-02-12T13:23:23.524Z,5.4
2019-02-12T13:28:19.527Z,5.4
2019-02-12T13:33:15.451Z,5.4
2019-02-12T13:38:11.456Z,5.2
2019-02-12T13:43:07.388Z,5.3
2019-02-12T13:48:02.713Z,5.2
2019-02-12T13:52:58.609Z,5.2
2019-02-12T13:57:53.018Z,5.2
2019-02-12T14:02:49.207Z,5.2
2019-02-12T14:07:45.139Z,5.1
2019-02-12T14:12:41.256Z,5
2019-02-12T14:17:37.180Z,5
2019-02-12T14:22:33.237Z,4.9
2019-02-12T14:27:29.227Z,4.9
2019-02-12T14:32:25.105Z,4.8
2019-02-12T14:37:21.159Z,4.9
2019-02-12T14:42:17.255Z,4.5
2019-02-12T14:47:12.662Z,4.8
2019-02-12T14:52:08.566Z,4.8
2019-02-12T14:57:04.701Z,4.8
2019-02-12T15:02:00.751Z,4.8
2019-02-12T15:06:56.877Z,4.7
2019-02-12T15:11:52.926Z,4.7
2019-02-12T15:16:48.982Z,4.4
2019-02-12T15:21:45.025Z,4.6
2019-02-12T15:26:41.088Z,4.6
2019-02-12T15:31:37.103Z,4.3
2019-02-12T15:36:33.201Z,4.4
2019-02-12T15:41:29.756Z,4.3
2019-02-12T15:46:25.514Z,4.3
2019-02-12T15:51:21.584Z,4.3
2019-02-12T15:56:17.083Z,4.2
2019-02-12T16:01:13.713Z,3.7
2019-02-12T16:06:09.668Z,4.2
2019-02-12T16:11:05.790Z,4.2
2019-02-12T16:16:01.903Z,4.2
2019-02-12T16:20:58.469Z,4.2
2019-02-12T16:25:59.429Z,4.1
2019-02-12T16:30:50.405Z,4.1
2019-02-12T16:35:46.537Z,4.1
2019-02-12T16:40:42.603Z,4
2019-02-12T16:45:38.374Z,4.1
2019-02-12T16:50:34.543Z,4
2019-02-12T16:55:30.513Z,3.5
2019-02-12T17:00:26.506Z,3.3
2019-02-12T17:05:22.835Z,3.8
2019-02-12T17:10:18.747Z,3.8
2019-02-12T17:15:14.714Z,3.8
2019-02-12T17:20:10.891Z,3.2
2019-02-12T17:25:06.887Z,3.7
2019-02-12T17:30:03.128Z,3.7
2019-02-12T17:35:01.297Z,3.7
2019-02-12T17:39:55.012Z,3.7
2019-02-12T17:44:50.947Z,3.7
2019-02-12T17:49:47.015Z,3.6
2019-02-12T17:54:42.654Z,3.6
2019-02-12T17:59:38.890Z,3.6
2019-02-12T18:04:34.929Z,3.6
2019-02-12T18:09:31.188Z,3.6
2019-02-12T18:14:26.662Z,3.6
2019-02-12T18:19:22.869Z,3.6
2019-02-12T18:24:19.679Z,3.5
2019-02-12T18:29:15.936Z,3.6
2019-02-12T18:34:11.776Z,3.6
2019-02-12T18:39:07.854Z,3.5
2019-02-12T18:44:04.055Z,3.5
2019-02-12T18:49:00.018Z,3.5
2019-02-12T18:53:55.924Z,-2.2
2019-02-12T18:58:51.013Z,3.5
2019-02-12T19:03:47.363Z,3.5
2019-02-12T19:08:43.566Z,3.5
2019-02-12T19:13:39.575Z,3.5
2019-02-12T19:18:35.646Z,3.5
2019-02-12T19:23:31.836Z,3.4
2019-02-12T19:28:28.073Z,3.3
2019-02-12T19:33:24.240Z,3.4
2019-02-12T19:38:20.809Z,3.3
2019-02-12T19:43:16.686Z,3.3
2019-02-12T19:48:12.772Z,3.3
2019-02-12T19:53:08.952Z,3.3
2019-02-12T19:58:05.249Z,3.3
2019-02-12T20:03:01.306Z,-2.1
2019-02-12T20:07:57.572Z,3.2
2019-02-12T20:12:54.144Z,2.7
2019-02-12T20:17:50.255Z,3.1
2019-02-12T20:22:47.118Z,3.2
2019-02-12T20:27:43.156Z,3.2
2019-02-12T20:32:39.293Z,3.2
2019-02-12T20:37:35.642Z,3.2
2019-02-12T20:42:34.418Z,3.2
2019-02-12T20:47:30.572Z,3.1
2019-02-12T20:52:26.803Z,3.2
2019-02-12T20:57:23.038Z,2.4
2019-02-12T21:02:19.822Z,2.5
2019-02-12T21:07:16.248Z,2.6
2019-02-12T21:12:12.386Z,3.2
2019-02-12T21:17:08.445Z,3.1
2019-02-12T21:22:04.967Z,3.1
2019-02-12T21:27:01.193Z,3.1
2019-02-12T21:31:57.181Z,3
2019-02-12T21:36:53.336Z,3
2019-02-12T21:41:49.345Z,3
2019-02-12T21:46:45.649Z,3
2019-02-12T21:51:41.600Z,3
2019-02-12T21:56:37.646Z,3
2019-02-12T22:01:33.494Z,3
2019-02-12T22:06:29.735Z,2.8
2019-02-12T22:11:25.639Z,3
2019-02-12T22:16:21.655Z,2.9
2019-02-12T22:21:17.488Z,2.9
2019-02-12T22:26:13.300Z,2.9
2019-02-12T22:31:09.423Z,2.7
2019-02-12T22:36:05.495Z,2.9
2019-02-12T22:41:01.477Z,2.9
2019-02-12T22:45:57.569Z,2.9
2019-02-12T22:50:53.675Z,2.8
2019-02-12T22:55:50.096Z,2.8
2019-02-12T23:00:45.917Z,2.8
2019-02-12T23:05:42.448Z,2.6
2019-02-12T23:10:38.720Z,2.8
2019-02-12T23:15:34.933Z,2.7
2019-02-12T23:20:30.834Z,2.8
2019-02-12T23:25:26.711Z,-2.4
2019-02-12T23:30:22.806Z,2.7
2019-02-12T23:35:18.274Z,2.6
2019-02-12T23:40:14.233Z,2.6
2019-02-12T23:45:10.454Z,2.5
2019-02-12T23:50:06.280Z,2.5
2019-02-12T23:55:02.719Z,2.4
2019-02-12T23:59:59.002Z,2.4
